RYR1309 EBCI-LPPR
Flight info
| Callsign | RYR1309 |
|---|---|
| Flight time | N/A |
| Altitude | 37000 |
| Route | CIV N872 LESDO DCT KOVIN/N0444F370 DCT NIDUV DCT KIHVI UN872 KURIS/N0452F390 UN872 ERIGA DCT FUJTI DCT ATLEN DCT INSID T326 ASPOR |
| Aircraft | B738/M-SDE2E3FGHIRWXY/LB1 |
Departure
| Time | 2026-05-04 11:50 |
|---|---|
| Airport | Brussels South Charleroi Airport (EBCI) |
Arrival
| Time | N/A |
|---|---|
| Airport | Francisco de Sá Carneiro Airport (LPPR) |
| Time | Latitude | Longitude | Altitude | Speed | Heading |
|---|---|---|---|---|---|
| 2026-05-04 11:31 | 50.46940 | 4.47346 | 612 ft | 0 kts | 335° |
| 2026-05-04 11:40 | 50.46899 | 4.47404 | 625 ft | 1 kts | 245° |
| 2026-05-04 11:41 | 50.46905 | 4.47425 | 623 ft | 2 kts | 245° |
| 2026-05-04 11:41 | 50.46908 | 4.47435 | 623 ft | 0 kts | 245° |
| 2026-05-04 11:46 | 50.46906 | 4.47429 | 623 ft | 2 kts | 245° |
| 2026-05-04 11:46 | 50.46892 | 4.47381 | 619 ft | 9 kts | 246° |
| 2026-05-04 11:47 | 50.46833 | 4.47330 | 611 ft | 13 kts | 161° |
| 2026-05-04 11:47 | 50.46744 | 4.47392 | 616 ft | 13 kts | 155° |
| 2026-05-04 11:47 | 50.46719 | 4.47410 | 615 ft | 0 kts | 155° |
| 2026-05-04 11:49 | 50.46712 | 4.47415 | 616 ft | 4 kts | 155° |
| 2026-05-04 11:49 | 50.46661 | 4.47452 | 619 ft | 12 kts | 155° |
| 2026-05-04 11:49 | 50.46609 | 4.47425 | 618 ft | 8 kts | 239° |
| 2026-05-04 11:50 | 50.46554 | 4.47243 | 626 ft | 47 kts | 245° |
| 2026-05-04 11:50 | 50.46291 | 4.46333 | 614 ft | 135 kts | 245° |
| 2026-05-04 11:50 | 50.45792 | 4.44651 | 873 ft | 191 kts | 243° |
| 2026-05-04 11:50 | 50.45234 | 4.42748 | 2047 ft | 199 kts | 245° |
| 2026-05-04 11:51 | 50.44671 | 4.40724 | 3072 ft | 204 kts | 246° |
| 2026-05-04 11:51 | 50.44101 | 4.38629 | 3777 ft | 216 kts | 245° |
| 2026-05-04 11:51 | 50.43462 | 4.36372 | 4202 ft | 236 kts | 244° |
| 2026-05-04 11:51 | 50.42761 | 4.33992 | 4853 ft | 244 kts | 244° |
| 2026-05-04 11:52 | 50.42037 | 4.31510 | 5432 ft | 260 kts | 245° |
| 2026-05-04 11:52 | 50.41279 | 4.28875 | 6206 ft | 269 kts | 247° |
| 2026-05-04 11:52 | 50.40906 | 4.25996 | 6717 ft | 273 kts | 274° |
| 2026-05-04 11:52 | 50.41411 | 4.23118 | 6980 ft | 277 kts | 296° |
| 2026-05-04 11:53 | 50.42046 | 4.20282 | 6979 ft | 277 kts | 272° |
| 2026-05-04 11:53 | 50.41729 | 4.17328 | 7203 ft | 278 kts | 252° |
| 2026-05-04 11:53 | 50.41149 | 4.14441 | 7824 ft | 284 kts | 252° |
| 2026-05-04 11:53 | 50.40592 | 4.11456 | 7967 ft | 285 kts | 254° |
| 2026-05-04 11:55 | 50.37212 | 3.88806 | 11893 ft | 347 kts | 257° |
| 2026-05-04 11:55 | 50.36693 | 3.85100 | 12719 ft | 350 kts | 257° |
| 2026-05-04 11:56 | 50.36178 | 3.81415 | 13513 ft | 354 kts | 257° |
| 2026-05-04 11:56 | 50.35645 | 3.77625 | 14243 ft | 358 kts | 257° |
| 2026-05-04 11:56 | 50.35105 | 3.73799 | 14960 ft | 362 kts | 257° |
| 2026-05-04 11:56 | 50.34323 | 3.70054 | 15642 ft | 365 kts | 240° |
| 2026-05-04 11:57 | 50.32739 | 3.66972 | 16363 ft | 366 kts | 220° |
| 2026-05-04 11:57 | 50.30572 | 3.64871 | 17070 ft | 369 kts | 204° |
| 2026-05-04 11:57 | 50.28193 | 3.63279 | 17738 ft | 374 kts | 202° |
| 2026-05-04 11:57 | 50.25760 | 3.61725 | 18389 ft | 379 kts | 202° |
| 2026-05-04 11:58 | 50.23322 | 3.60137 | 19016 ft | 381 kts | 203° |
| 2026-05-04 11:58 | 50.20876 | 3.58508 | 19700 ft | 382 kts | 203° |
| 2026-05-04 11:58 | 50.18439 | 3.56868 | 20389 ft | 382 kts | 203° |
| 2026-05-04 11:58 | 50.15990 | 3.55221 | 21040 ft | 384 kts | 203° |
| 2026-05-04 11:59 | 50.13527 | 3.53568 | 21655 ft | 386 kts | 203° |
| 2026-05-04 11:59 | 50.11078 | 3.51927 | 22259 ft | 388 kts | 203° |
| 2026-05-04 11:59 | 50.08587 | 3.50261 | 22861 ft | 390 kts | 203° |
| 2026-05-04 11:59 | 50.06086 | 3.48588 | 23447 ft | 393 kts | 203° |
| 2026-05-04 12:00 | 50.03566 | 3.46906 | 23934 ft | 395 kts | 203° |
| 2026-05-04 12:00 | 50.01032 | 3.45215 | 24438 ft | 396 kts | 203° |
| 2026-05-04 12:00 | 49.98496 | 3.43525 | 24940 ft | 397 kts | 203° |
| 2026-05-04 12:00 | 49.95949 | 3.41830 | 25411 ft | 399 kts | 202° |
| 2026-05-04 12:01 | 49.93398 | 3.40135 | 25859 ft | 400 kts | 202° |
| 2026-05-04 12:01 | 49.90827 | 3.38427 | 26320 ft | 402 kts | 202° |
| 2026-05-04 12:02 | 49.75651 | 3.28389 | 28774 ft | 412 kts | 202° |
| 2026-05-04 12:03 | 49.73010 | 3.26649 | 29161 ft | 413 kts | 202° |
| 2026-05-04 12:03 | 49.70361 | 3.24905 | 29532 ft | 415 kts | 201° |
| 2026-05-04 12:03 | 49.67695 | 3.23152 | 29904 ft | 416 kts | 201° |
| 2026-05-04 12:03 | 49.65027 | 3.21399 | 30277 ft | 416 kts | 201° |
| 2026-05-04 12:04 | 49.62366 | 3.19652 | 30777 ft | 413 kts | 201° |
| 2026-05-04 12:04 | 49.59748 | 3.17934 | 31283 ft | 409 kts | 202° |
| 2026-05-04 12:04 | 49.57127 | 3.16218 | 31714 ft | 407 kts | 202° |
| 2026-05-04 12:04 | 49.54517 | 3.14512 | 32080 ft | 407 kts | 202° |
| 2026-05-04 12:05 | 49.51936 | 3.12728 | 32466 ft | 406 kts | 208° |
| 2026-05-04 12:05 | 49.49642 | 3.10282 | 32867 ft | 407 kts | 218° |